logo
Rechercher aéroport 
image banner adimage banner adimage banner ad
image banner ad

75CL - Ronald Reagan Ucla Medical Center Helistop

Situé à Los Angeles, United States

ICAO - 75CL, IATA -

Données fournies par Airmate  

Information générale

Coordonnées: N34°4'0" W118°26'47"
Élévation : 507 feet MSL.
 
Voir autres Aéroports à California

Données opérationnelles

Special qualification required
Heure actuelle UTC:
Heure actuelle locale:
Météo à : KSMO - Santa Monica Muni ( 6 km )
METAR: KSMO 100051Z 24003KT 10SM CLR 13/08 A3010 RMK AO2 SLP192 T01330078
TAF: KSMO 092324Z 1000/1024 24008KT P6SM SKC FM100300 VRB03KT P6SM SCT200 FM101100 VRB03KT P6SM BKN025 BKN080 FM102000 23010KT P6SM VCSH SCT015 OVC025
Voir NOTAMs / SUP AIP / TFR affectant cet aéroport [VIEW]
Fréquences de communication: [VIEW]

Pistes:

Coordonnées de l'aéroport

Adresse: Los Angeles United States

Vue satellite de 75CL